Terminal Aerodrome Forecast
Issued by NWS

Home | Current Version | Previous Version | Text Only | Print | Product List | Glossary On
Versions: 1 2 3 4 5 6 7 8 9 10 11 12 13 14 15 16 17 18 19 20 21 22 23 24 25 26 27 28 29 30 31 32 33 34 35 36 37 38 39 40
000
FTAK31 PANC 072336
TAFADQ
TAF
PADQ 072336Z 0800/0824 04028G38KT 3SM -RASN SCT012 OVC020
      TEMPO 0800/0803 05018G28KT 2SM -RA BKN012 OVC020
     FM080300 06018G28KT 4SM -RA BR BKN012 OVC020
     FM080600 09015G25KT 4SM -RA BR BKN012 OVC020
     FM081200 10025G35KT 4SM -RA BR OVC012
     FM081500 14025G35KT 5SM -RA OVC012
     FM082200 14015G25KT 5SM -RA OVC012=

USA.gov is the U.S. government's official web portal to all federal, state and local government web resources and services.